Time;durP1;ratioP1;P1;durP2;ratioP2;P2;SDS_P1;SDS_P2;PMS_P1;PMS_P2;Temp;Humidity;BMP_temperature;BMP_pressure;BME280_temperature;BME280_humidity;BME280_pressure;Samples;Min_cycle;Max_cycle;Signal;HPM_P1;HPM_P2
2022/04/28 00:01:58;;;;;;;5.80;2.80;;;4.80;72.80;;;;;;5032966;28;20022;-76
2022/04/28 00:04:24;;;;;;;3.88;2.97;;;4.80;73.00;;;;;;5031537;28;20022;-76
2022/04/28 00:06:50;;;;;;;3.78;3.38;;;4.80;72.90;;;;;;5032592;28;20040;-75
2022/04/28 00:09:16;;;;;;;6.32;3.70;;;4.70;73.50;;;;;;5033015;28;20434;-76
2022/04/28 00:11:42;;;;;;;4.93;4.15;;;4.80;74.40;;;;;;5031030;28;20041;-76
2022/04/28 00:14:08;;;;;;;5.65;3.88;;;4.70;75.00;;;;;;5031577;28;20046;-76
2022/04/28 00:16:35;;;;;;;6.45;4.10;;;4.80;75.30;;;;;;5032999;28;20449;-76
2022/04/28 00:19:04;;;;;;;7.40;4.72;;;4.80;75.60;;;;;;5032847;28;20034;-75
2022/04/28 00:21:30;;;;;;;7.38;4.70;;;4.80;75.70;;;;;;5032817;28;20049;-77
2022/04/28 00:23:56;;;;;;;7.95;4.10;;;4.80;75.80;;;;;;5032053;28;20041;-76
2022/04/28 00:26:21;;;;;;;8.75;5.13;;;4.80;76.20;;;;;;5032910;28;20116;-77
2022/04/28 00:28:48;;;;;;;6.50;5.18;;;4.70;76.20;;;;;;5034239;28;20379;-76
2022/04/28 00:31:13;;;;;;;8.10;5.25;;;4.70;76.30;;;;;;5032769;28;20021;-76
2022/04/28 00:33:42;;;;;;;7.75;4.85;;;4.70;76.00;;;;;;5032687;28;20052;-77
2022/04/28 00:36:09;;;;;;;7.57;5.25;;;4.60;75.50;;;;;;5032867;28;20018;-76
2022/04/28 00:38:35;;;;;;;5.10;4.20;;;4.40;74.90;;;;;;5034323;28;20028;-75
2022/04/28 00:41:02;;;;;;;10.13;5.75;;;4.20;75.00;;;;;;5033835;28;20043;-76
2022/04/28 00:43:31;;;;;;;6.00;5.07;;;4.10;76.20;;;;;;5033653;28;20025;-75
2022/04/28 00:45:59;;;;;;;5.50;3.60;;;4.00;77.10;;;;;;5032474;28;20049;-77
2022/04/28 00:51:12;;;;;;;9.50;3.80;;;3.80;75.60;;;;;;5032619;28;20140;-77
2022/04/28 00:53:46;;;;;;;8.00;3.67;;;3.80;73.00;;;;;;5030853;28;20029;-76
2022/04/28 00:56:13;;;;;;;3.92;2.95;;;3.70;71.60;;;;;;5032320;28;20026;-77
2022/04/28 00:58:39;;;;;;;3.55;2.85;;;3.60;71.20;;;;;;5031260;28;20422;-77
2022/04/28 01:01:05;;;;;;;3.95;3.22;;;3.50;70.70;;;;;;5031459;28;20498;-77
2022/04/28 01:03:31;;;;;;;5.55;2.50;;;3.50;70.70;;;;;;5031139;28;20241;-75
2022/04/28 01:05:58;;;;;;;4.00;2.88;;;3.30;70.50;;;;;;5032366;28;20108;-75
2022/04/28 01:08:24;;;;;;;6.93;3.63;;;3.30;70.70;;;;;;5032339;28;20506;-76
2022/04/28 01:10:52;;;;;;;10.63;3.28;;;3.30;71.10;;;;;;5032083;28;20251;-76
2022/04/28 01:13:18;;;;;;;5.63;4.25;;;3.20;71.40;;;;;;5031152;28;20083;-75
2022/04/28 01:15:48;;;;;;;5.07;3.30;;;3.20;71.50;;;;;;5031955;28;20035;-74
2022/04/28 01:18:15;;;;;;;4.93;3.42;;;3.10;71.80;;;;;;5031308;28;20049;-76
2022/04/28 01:20:42;;;;;;;6.55;4.18;;;3.10;72.30;;;;;;5032071;28;20028;-75
2022/04/28 01:23:09;;;;;;;6.28;3.60;;;3.10;72.60;;;;;;5032287;28;20503;-76
2022/04/28 01:25:35;;;;;;;5.15;4.22;;;3.10;73.20;;;;;;5031940;28;20026;-75
2022/04/28 01:28:01;;;;;;;8.18;4.47;;;3.10;73.50;;;;;;5031044;28;20025;-76
2022/04/28 01:30:27;;;;;;;5.80;4.55;;;3.10;73.70;;;;;;5031841;28;20033;-76
2022/04/28 01:32:56;;;;;;;9.30;3.83;;;3.10;73.80;;;;;;5031727;28;20112;-76
2022/04/28 01:35:22;;;;;;;7.03;4.15;;;3.10;73.80;;;;;;5031840;28;20037;-75
2022/04/28 01:37:47;;;;;;;6.78;4.25;;;3.00;73.90;;;;;;5031859;28;20040;-75
2022/04/28 01:40:13;;;;;;;7.22;4.63;;;3.00;74.00;;;;;;5031500;28;20041;-75
2022/04/28 01:42:43;;;;;;;5.55;4.90;;;3.10;74.40;;;;;;5030455;28;20164;-75
2022/04/28 01:45:09;;;;;;;7.65;4.53;;;3.20;74.80;;;;;;5030924;28;20029;-75
2022/04/28 01:47:36;;;;;;;7.78;5.30;;;3.30;75.00;;;;;;5031655;28;20058;-74
2022/04/28 01:50:04;;;;;;;7.03;4.93;;;3.40;75.20;;;;;;5031789;28;20091;-76
2022/04/28 01:55:15;;;;;;;8.60;4.30;;;3.50;75.30;;;;;;5031952;28;20049;-75
2022/04/28 01:57:41;;;;;;;8.48;5.40;;;3.50;75.30;;;;;;5031563;28;20395;-76
2022/04/28 02:00:08;;;;;;;8.27;4.93;;;3.60;75.80;;;;;;5031596;28;20037;-75
2022/04/28 02:02:34;;;;;;;6.90;3.63;;;3.60;74.50;;;;;;5030351;28;20030;-75
2022/04/28 02:05:02;;;;;;;4.28;3.60;;;3.60;73.40;;;;;;5031636;28;20034;-76
2022/04/28 02:07:29;;;;;;;7.93;4.82;;;3.60;72.50;;;;;;5031597;28;20021;-74
2022/04/28 02:09:56;;;;;;;7.80;4.10;;;3.50;72.30;;;;;;5031593;28;20040;-76
2022/04/28 02:12:22;;;;;;;7.07;3.25;;;3.40;71.90;;;;;;5031499;28;20285;-75
2022/04/28 02:14:48;;;;;;;3.65;2.22;;;3.30;69.90;;;;;;5031361;28;20045;-75
2022/04/28 02:17:22;;;;;;;5.55;2.20;;;3.20;65.50;;;;;;5030534;28;20517;-74
2022/04/28 02:19:48;;;;;;;4.28;2.00;;;3.10;63.10;;;;;;5031370;28;20021;-75
2022/04/28 02:22:15;;;;;;;3.95;2.28;;;3.10;63.60;;;;;;5031400;28;20084;-75
2022/04/28 02:24:41;;;;;;;2.03;1.52;;;3.10;63.20;;;;;;5030062;28;20383;-76
2022/04/28 02:27:08;;;;;;;3.35;2.40;;;3.00;62.80;;;;;;5031445;28;20026;-75
2022/04/28 02:29:34;;;;;;;9.33;2.83;;;3.00;62.60;;;;;;5033000;28;20018;-75
2022/04/28 02:32:00;;;;;;;3.63;2.05;;;3.00;62.00;;;;;;5034817;28;20478;-74
2022/04/28 02:34:25;;;;;;;3.08;1.92;;;3.00;60.10;;;;;;5034123;28;20508;-76
2022/04/28 02:36:51;;;;;;;4.18;2.35;;;3.00;60.20;;;;;;5034824;28;20108;-75
2022/04/28 02:39:18;;;;;;;4.43;2.22;;;3.10;60.70;;;;;;5034768;28;20430;-76
2022/04/28 02:41:47;;;;;;;4.10;2.78;;;3.00;60.70;;;;;;5033343;28;20052;-75
2022/04/28 02:44:13;;;;;;;2.88;1.92;;;3.10;60.80;;;;;;5034787;28;20089;-76
2022/04/28 02:46:43;;;;;;;4.03;2.45;;;3.20;61.00;;;;;;5033328;28;20029;-76
2022/04/28 02:49:09;;;;;;;5.28;2.08;;;3.20;61.20;;;;;;5034097;28;20035;-79
2022/04/28 02:51:36;;;;;;;3.78;2.22;;;3.30;61.60;;;;;;5032316;28;20025;-77
2022/04/28 02:54:02;;;;;;;4.75;3.20;;;3.30;61.70;;;;;;5034416;28;20049;-76
2022/04/28 02:56:28;;;;;;;5.60;2.83;;;3.40;61.60;;;;;;5034618;28;20014;-78
2022/04/28 02:58:54;;;;;;;6.80;2.90;;;3.40;61.60;;;;;;5034747;28;20032;-77
2022/04/28 03:01:24;;;;;;;5.32;2.95;;;3.50;61.40;;;;;;5020923;28;20025;-75
2022/04/28 03:03:50;;;;;;;3.28;2.53;;;3.60;61.10;;;;;;5026663;28;20104;-75
2022/04/28 03:11:49;;;;;;;5.57;2.17;;;3.40;60.40;;;;;;5034310;28;20095;-76
2022/04/28 03:14:15;;;;;;;4.25;2.20;;;3.40;59.70;;;;;;5034061;28;20033;-75
2022/04/28 03:16:41;;;;;;;2.75;1.85;;;3.40;60.00;;;;;;5033958;28;20026;-76
2022/04/28 03:19:08;;;;;;;4.88;2.25;;;3.40;59.30;;;;;;5033963;28;20030;-76
2022/04/28 03:21:34;;;;;;;4.30;2.03;;;3.40;58.80;;;;;;5033072;28;20025;-75
2022/04/28 03:24:00;;;;;;;5.38;1.95;;;3.40;58.10;;;;;;5033810;28;20548;-75
2022/04/28 03:26:25;;;;;;;4.88;1.90;;;3.40;57.70;;;;;;5033851;28;20056;-77
2022/04/28 03:28:51;;;;;;;4.63;2.30;;;3.50;57.30;;;;;;5033930;28;20112;-76
2022/04/28 03:31:17;;;;;;;5.07;3.25;;;3.60;56.90;;;;;;5033919;28;20021;-76
2022/04/28 03:33:43;;;;;;;2.50;1.73;;;3.60;56.80;;;;;;5033596;28;20120;-75
2022/04/28 03:38:53;;;;;;;9.23;3.83;;;3.80;55.60;;;;;;5032601;28;20044;-77
2022/04/28 03:41:19;;;;;;;4.50;3.30;;;3.80;55.80;;;;;;5032533;28;20076;-76
2022/04/28 03:43:45;;;;;;;6.75;2.33;;;3.80;56.20;;;;;;5032722;28;20061;-75
2022/04/28 03:46:11;;;;;;;6.43;3.25;;;3.90;56.60;;;;;;5033395;28;20463;-77
2022/04/28 03:48:37;;;;;;;8.65;4.32;;;4.00;56.30;;;;;;5033279;28;20026;-75
2022/04/28 03:51:04;;;;;;;6.72;3.42;;;4.10;56.30;;;;;;5033431;28;20047;-76
2022/04/28 03:53:33;;;;;;;3.30;2.47;;;4.20;56.00;;;;;;5033162;28;20022;-74
2022/04/28 03:55:59;;;;;;;5.18;3.05;;;4.40;55.60;;;;;;5033268;28;20491;-76
2022/04/28 03:58:25;;;;;;;5.43;2.95;;;4.50;55.70;;;;;;5032376;28;20095;-75
2022/04/28 04:00:52;;;;;;;4.18;2.58;;;4.50;55.90;;;;;;5033211;28;20041;-76
2022/04/28 04:03:20;;;;;;;6.95;1.60;;;4.60;56.50;;;;;;5032921;28;20037;-76
2022/04/28 04:05:46;;;;;;;;;;;4.60;55.50;;;;;;5033513;28;20040;-75
2022/04/28 04:08:12;;;;;;;6.88;2.80;;;4.70;55.60;;;;;;5033089;28;19912;-76
2022/04/28 04:10:38;;;;;;;5.15;2.78;;;4.60;54.90;;;;;;5032957;28;20029;-77
2022/04/28 04:13:04;;;;;;;5.43;2.72;;;4.70;55.20;;;;;;5032435;28;20033;-76
2022/04/28 04:15:32;;;;;;;3.88;2.45;;;4.70;55.00;;;;;;5033313;28;20100;-77
2022/04/28 04:17:58;;;;;;;4.53;1.80;;;4.80;54.80;;;;;;5033647;28;20029;-75
2022/04/28 04:20:24;;;;;;;3.97;2.33;;;4.90;54.30;;;;;;5033386;28;20026;-77
2022/04/28 04:22:50;;;;;;;8.20;3.58;;;5.00;54.40;;;;;;5033978;28;20128;-78
2022/04/28 04:25:15;;;;;;;3.92;2.55;;;5.10;54.30;;;;;;5033118;28;20057;-75
2022/04/28 04:27:41;;;;;;;5.90;2.42;;;5.30;54.30;;;;;;5031956;28;20117;-76
2022/04/28 04:32:52;;;;;;;3.53;1.98;;;5.60;53.20;;;;;;5033283;28;20040;-77
2022/04/28 04:35:18;;;;;;;6.40;3.00;;;5.70;53.10;;;;;;5033193;28;20503;-77
2022/04/28 04:37:44;;;;;;;4.25;2.10;;;5.70;52.70;;;;;;5032884;28;20096;-77
2022/04/28 04:40:13;;;;;;;2.85;1.83;;;5.60;53.40;;;;;;5032580;28;20047;-76
2022/04/28 04:42:39;;;;;;;3.30;2.47;;;5.80;53.20;;;;;;5032606;28;20386;-76
2022/04/28 04:45:09;;;;;;;5.47;3.13;;;6.30;53.30;;;;;;5032435;28;20021;-78
2022/04/28 04:47:35;;;;;;;3.92;2.70;;;7.10;51.10;;;;;;5032071;28;20033;-77
2022/04/28 04:50:02;;;;;;;4.28;2.72;;;8.00;48.80;;;;;;5032451;28;20033;-77
2022/04/28 04:52:27;;;;;;;5.10;2.72;;;8.70;46.70;;;;;;5032079;28;20026;-77
2022/04/28 04:54:53;;;;;;;4.90;3.08;;;9.30;44.70;;;;;;5032128;28;20087;-78
2022/04/28 04:57:19;;;;;;;5.97;2.28;;;9.90;44.30;;;;;;5032135;28;20505;-77
2022/04/28 04:59:45;;;;;;;5.32;2.58;;;10.60;42.80;;;;;;5032159;28;20489;-76
2022/04/28 05:02:10;;;;;;;7.18;3.17;;;10.70;41.60;;;;;;5030958;28;20107;-77
2022/04/28 05:04:36;;;;;;;7.32;2.63;;;10.60;40.30;;;;;;5031896;28;20415;-76
2022/04/28 05:07:02;;;;;;;5.57;2.45;;;10.80;41.20;;;;;;5032212;28;20100;-77
2022/04/28 05:09:28;;;;;;;8.30;3.55;;;11.60;40.50;;;;;;5032100;28;20025;-77
2022/04/28 05:11:54;;;;;;;4.95;2.60;;;11.90;38.90;;;;;;5031673;28;20021;-77
2022/04/28 05:14:19;;;;;;;9.02;4.18;;;11.70;38.90;;;;;;5031747;28;20033;-76
2022/04/28 05:16:45;;;;;;;5.47;2.90;;;11.80;39.00;;;;;;5031912;28;20104;-76
2022/04/28 05:19:11;;;;;;;7.28;2.53;;;12.40;38.40;;;;;;5031378;28;20037;-78
2022/04/28 05:21:37;;;;;;;4.53;2.65;;;13.30;37.60;;;;;;5030063;28;20022;-77
2022/04/28 05:24:02;;;;;;;3.35;2.30;;;14.20;36.40;;;;;;5031459;28;20034;-78
2022/04/28 05:26:28;;;;;;;3.67;2.00;;;14.30;34.70;;;;;;5031755;28;20025;-79
2022/04/28 05:28:54;;;;;;;6.97;2.67;;;14.30;34.70;;;;;;5031707;28;20530;-76
2022/04/28 05:31:20;;;;;;;5.50;2.47;;;14.50;35.00;;;;;;5030477;28;20103;-76
2022/04/28 05:33:46;;;;;;;6.45;2.65;;;14.90;34.40;;;;;;5030375;28;20038;-77
2022/04/28 05:36:14;;;;;;;4.88;2.20;;;15.40;33.50;;;;;;5062731;28;20033;-77
2022/04/28 05:38:40;;;;;;;4.25;3.10;;;15.40;32.80;;;;;;5031655;28;20022;-78
2022/04/28 05:41:10;;;;;;;3.55;2.13;;;15.40;33.70;;;;;;5031482;28;20117;-78
2022/04/28 05:46:21;;;;;;;3.95;2.60;;;16.70;31.60;;;;;;5031493;28;20657;-77
2022/04/28 05:48:48;;;;;;;5.43;2.70;;;16.70;31.10;;;;;;5031522;28;20112;-77
2022/04/28 05:51:13;;;;;;;6.45;2.10;;;17.10;31.30;;;;;;5031642;28;20466;-79
2022/04/28 05:53:39;;;;;;;5.85;3.25;;;18.00;30.60;;;;;;5029329;28;20566;-77
2022/04/28 05:56:06;;;;;;;4.13;2.65;;;18.50;29.60;;;;;;5031142;28;20021;-78
2022/04/28 05:58:32;;;;;;;7.03;3.00;;;18.80;29.70;;;;;;5031152;28;20030;-79
2022/04/28 06:00:59;;;;;;;7.63;2.47;;;19.70;29.30;;;;;;5031496;28;20035;-77
2022/04/28 06:03:25;;;;;;;3.85;2.10;;;20.50;28.50;;;;;;5030929;28;20026;-78
2022/04/28 06:05:51;;;;;;;4.97;2.22;;;21.00;28.10;;;;;;5034841;28;20025;-79
2022/04/28 06:08:17;;;;;;;3.17;2.30;;;21.40;27.50;;;;;;5034337;28;20102;-78
2022/04/28 06:10:42;;;;;;;4.32;2.40;;;19.90;26.90;;;;;;5035329;28;20385;-77
2022/04/28 06:13:08;;;;;;;9.02;2.80;;;17.80;28.20;;;;;;5035168;28;20514;-78
2022/04/28 06:15:34;;;;;;;9.70;3.13;;;16.60;29.40;;;;;;5035216;28;20100;-80
2022/04/28 06:18:00;;;;;;;4.68;2.40;;;17.20;29.90;;;;;;5035883;28;20053;-78
2022/04/28 06:20:26;;;;;;;5.55;3.08;;;18.30;28.70;;;;;;5033407;28;20033;-78
2022/04/28 06:22:52;;;;;;;5.00;2.17;;;19.40;27.70;;;;;;5033636;28;20371;-78
2022/04/28 06:25:18;;;;;;;8.95;3.45;;;20.00;27.20;;;;;;5034337;28;20017;-78
2022/04/28 06:27:44;;;;;;;3.58;2.55;;;20.60;26.50;;;;;;5034460;28;20100;-79
2022/04/28 06:30:10;;;;;;;5.22;3.38;;;20.50;26.50;;;;;;5034231;28;20025;-77
2022/04/28 06:32:36;;;;;;;5.43;2.50;;;20.50;26.40;;;;;;5032621;28;20506;-78
2022/04/28 06:35:07;;;;;;;5.70;2.22;;;20.90;26.30;;;;;;5034931;28;20037;-78
2022/04/28 06:37:32;;;;;;;5.07;2.28;;;20.90;26.10;;;;;;5033066;28;20029;-78
2022/04/28 06:39:58;;;;;;;4.15;2.60;;;20.90;25.90;;;;;;5032594;28;20514;-78
2022/04/28 06:42:24;;;;;;;6.32;2.20;;;22.00;25.40;;;;;;5034776;28;20082;-78
2022/04/28 06:44:50;;;;;;;4.03;2.25;;;22.70;24.90;;;;;;5034650;28;20399;-77
2022/04/28 06:47:16;;;;;;;7.63;1.92;;;23.50;24.60;;;;;;5030985;28;20509;-78
2022/04/28 06:49:41;;;;;;;3.28;1.60;;;24.10;23.50;;;;;;5025458;28;20399;-77
2022/04/28 06:52:07;;;;;;;4.47;1.83;;;24.30;23.40;;;;;;5014727;28;20403;-78
2022/04/28 06:54:33;;;;;;;2.15;1.83;;;24.30;22.80;;;;;;5020343;28;20445;-78
2022/04/28 06:56:59;;;;;;;8.45;2.03;;;23.90;22.60;;;;;;5034353;28;20028;-79
2022/04/28 06:59:25;;;;;;;8.45;2.17;;;23.80;23.00;;;;;;5032815;28;20551;-77
2022/04/28 07:01:51;;;;;;;4.93;1.85;;;23.20;23.60;;;;;;5033820;28;20053;-78
2022/04/28 07:04:17;;;;;;;2.72;2.03;;;22.40;23.50;;;;;;5033268;28;20037;-79
2022/04/28 07:06:43;;;;;;;3.83;2.03;;;22.10;23.80;;;;;;5034082;28;20378;-78
2022/04/28 07:09:09;;;;;;;4.82;2.05;;;22.60;23.60;;;;;;5033485;28;20072;-78
2022/04/28 07:11:35;;;;;;;5.72;1.98;;;22.30;23.20;;;;;;5034829;28;20014;-83
2022/04/28 07:14:01;;;;;;;3.90;1.90;;;21.60;23.70;;;;;;5037501;28;20052;-83
2022/04/28 07:16:26;;;;;;;5.22;1.88;;;21.50;23.50;;;;;;5032337;28;20033;-79
2022/04/28 07:18:52;;;;;;;5.63;2.10;;;21.20;23.60;;;;;;5032654;28;20044;-81
2022/04/28 07:21:18;;;;;;;4.28;2.00;;;21.20;24.10;;;;;;5033403;28;20089;-80
2022/04/28 07:23:44;;;;;;;3.13;1.67;;;21.70;24.10;;;;;;5033403;28;20518;-80
2022/04/28 07:26:10;;;;;;;8.32;2.80;;;21.90;23.70;;;;;;5033525;28;20033;-78
2022/04/28 07:28:35;;;;;;;3.83;2.35;;;22.40;24.00;;;;;;5032357;28;20399;-81
2022/04/28 07:31:02;;;;;;;3.33;2.10;;;21.70;24.10;;;;;;5032685;28;20038;-79
2022/04/28 07:33:28;;;;;;;5.38;2.30;;;22.00;24.10;;;;;;5025442;28;20072;-84
2022/04/28 07:35:54;;;;;;;3.80;2.33;;;21.90;24.40;;;;;;5013367;28;20062;-81
2022/04/28 07:38:21;;;;;;;5.72;2.83;;;22.40;23.90;;;;;;5028941;28;20160;-80
2022/04/28 07:40:48;;;;;;;7.47;3.83;;;22.40;23.70;;;;;;5035510;28;20069;-88
2022/04/28 07:43:14;;;;;;;5.15;2.47;;;21.40;23.80;;;;;;5035788;28;20028;-81
2022/04/28 07:45:40;;;;;;;4.57;2.30;;;20.70;24.40;;;;;;5034262;28;20033;-82
2022/04/28 07:48:06;;;;;;;3.95;1.95;;;22.00;23.90;;;;;;5033715;28;20029;-81
2022/04/28 07:50:32;;;;;;;5.65;2.20;;;22.40;23.10;;;;;;5033375;28;20041;-84
2022/04/28 07:52:58;;;;;;;6.00;2.35;;;20.80;23.40;;;;;;5033500;28;20025;-81
2022/04/28 07:55:24;;;;;;;4.70;2.17;;;20.40;24.40;;;;;;5032864;28;20041;-80
2022/04/28 07:57:49;;;;;;;4.57;2.40;;;21.80;24.30;;;;;;5033348;28;20022;-80
2022/04/28 08:00:15;;;;;;;6.70;2.58;;;23.40;23.50;;;;;;5033299;28;20070;-81
2022/04/28 08:02:41;;;;;;;4.80;1.88;;;24.70;22.60;;;;;;5027895;28;20106;-79
2022/04/28 08:05:08;;;;;;;3.22;2.05;;;25.00;21.90;;;;;;5047127;28;20037;-80
2022/04/28 08:07:34;;;;;;;2.75;2.00;;;23.70;22.30;;;;;;5012968;28;20065;-79
2022/04/28 08:10:06;;;;;;;2.95;2.00;;;23.80;22.70;;;;;;5049833;28;20068;-79
2022/04/28 08:12:34;;;;;;;4.18;2.08;;;25.00;22.80;;;;;;5031660;28;20071;-81
2022/04/28 08:15:03;;;;;;;3.08;1.73;;;25.10;21.60;;;;;;5033281;28;20021;-80
2022/04/28 08:17:29;;;;;;;4.32;2.13;;;24.40;21.60;;;;;;5033201;28;20029;-79
2022/04/28 08:19:54;;;;;;;3.25;2.03;;;24.00;22.30;;;;;;5032792;28;20079;-79
2022/04/28 08:22:20;;;;;;;3.63;1.92;;;24.50;22.00;;;;;;5032959;28;20025;-79
2022/04/28 08:24:46;;;;;;;2.45;1.70;;;23.60;21.80;;;;;;5032658;28;20538;-79
2022/04/28 08:27:12;;;;;;;3.60;2.00;;;21.30;22.70;;;;;;5031335;28;20079;-80
2022/04/28 08:29:37;;;;;;;4.72;2.58;;;18.90;24.10;;;;;;5032749;28;20025;-80
2022/04/28 08:32:04;;;;;;;4.60;2.35;;;17.10;25.70;;;;;;5032557;28;20021;-80
2022/04/28 08:34:30;;;;;;;6.63;2.78;;;17.50;26.20;;;;;;5032577;28;20029;-82
2022/04/28 08:36:55;;;;;;;4.72;2.50;;;19.30;25.30;;;;;;5032610;28;20113;-79
2022/04/28 08:39:22;;;;;;;5.68;2.58;;;20.80;24.00;;;;;;5032443;28;20040;-80
2022/04/28 08:41:47;;;;;;;4.70;2.45;;;20.20;23.90;;;;;;5032129;28;20077;-79
2022/04/28 08:44:17;;;;;;;5.95;3.78;;;18.90;24.50;;;;;;5031469;28;20064;-81
2022/04/28 08:46:51;;;;;;;8.00;2.90;;;17.40;25.40;;;;;;5032405;28;20025;-79
2022/04/28 08:49:25;;;;;;;3.28;2.05;;;16.10;26.20;;;;;;5031724;28;20057;-80
2022/04/28 08:51:53;;;;;;;3.13;2.25;;;15.20;27.20;;;;;;5032518;28;20013;-78
2022/04/28 08:54:21;;;;;;;7.72;2.55;;;14.60;27.50;;;;;;5033239;28;20091;-79
2022/04/28 08:56:48;;;;;;;7.60;2.78;;;14.10;28.00;;;;;;5032267;28;20471;-81
2022/04/28 08:59:14;;;;;;;8.88;2.67;;;13.50;28.50;;;;;;5032375;28;20032;-81
2022/04/28 09:01:41;;;;;;;7.43;2.33;;;13.00;29.10;;;;;;5032130;28;20404;-81
2022/04/28 09:04:10;;;;;;;3.88;2.53;;;12.60;29.30;;;;;;5031322;28;20475;-80
2022/04/28 09:06:38;;;;;;;6.20;3.15;;;12.20;29.80;;;;;;5032055;28;20022;-79
2022/04/28 09:09:09;;;;;;;4.15;2.83;;;11.70;30.00;;;;;;5028242;28;20116;-82
2022/04/28 09:11:39;;;;;;;6.43;3.40;;;12.40;30.50;;;;;;5013065;28;20029;-79
2022/04/28 09:14:11;;;;;;;3.42;2.67;;;13.80;29.40;;;;;;5012764;28;20044;-80
2022/04/28 09:16:57;;;;;;;4.03;2.50;;;13.20;29.20;;;;;;5012563;28;20030;-81
2022/04/28 09:19:32;;;;;;;7.88;2.90;;;13.40;30.00;;;;;;5012442;28;20440;-79
2022/04/28 09:22:04;;;;;;;4.72;2.85;;;15.40;29.20;;;;;;5028927;28;20036;-79
2022/04/28 09:24:31;;;;;;;13.40;7.15;;;16.60;27.50;;;;;;5032873;28;20099;-81
2022/04/28 09:27:00;;;;;;;7.78;4.05;;;17.90;26.60;;;;;;5030912;28;20026;-81
2022/04/28 09:29:32;;;;;;;4.00;2.40;;;19.10;25.80;;;;;;5032050;28;20055;-78
2022/04/28 09:31:59;;;;;;;9.05;2.60;;;19.70;25.20;;;;;;5032593;28;20046;-78
2022/04/28 09:34:25;;;;;;;5.00;3.20;;;19.30;25.10;;;;;;5032483;28;20088;-79
2022/04/28 09:36:52;;;;;;;5.88;2.97;;;18.70;26.00;;;;;;5031715;28;20220;-80
2022/04/28 09:44:50;;;;;;;5.40;2.70;;;16.80;26.90;;;;;;5035350;28;20505;-77
2022/04/28 09:47:18;;;;;;;6.93;3.80;;;17.30;26.90;;;;;;5035768;28;20466;-78
2022/04/28 09:49:52;;;;;;;5.80;3.08;;;18.20;26.90;;;;;;5050946;28;20080;-78
2022/04/28 09:52:24;;;;;;;4.15;2.30;;;19.90;25.70;;;;;;5015686;28;20026;-79
2022/04/28 09:54:57;;;;;;;4.53;3.08;;;21.10;25.00;;;;;;5015906;28;20030;-79
2022/04/28 09:57:24;;;;;;;7.65;2.95;;;21.30;24.40;;;;;;5035457;28;20113;-81
2022/04/28 09:59:53;;;;;;;5.72;3.45;;;21.10;24.40;;;;;;5033999;28;20037;-79
2022/04/28 10:02:21;;;;;;;4.30;2.50;;;21.40;24.70;;;;;;5024688;28;20021;-80
2022/04/28 10:04:48;;;;;;;5.40;2.67;;;22.10;23.80;;;;;;5034074;28;20025;-78
2022/04/28 10:07:19;;;;;;;9.05;2.67;;;21.40;23.70;;;;;;5034832;28;20116;-78
2022/04/28 10:09:48;;;;;;;6.60;4.22;;;20.30;24.20;;;;;;5035464;28;20022;-78
2022/04/28 10:12:22;;;;;;;4.85;2.38;;;18.70;25.10;;;;;;5035444;28;20029;-81
2022/04/28 10:14:49;;;;;;;8.68;2.72;;;17.20;25.60;;;;;;5036088;28;20060;-78
2022/04/28 10:17:19;;;;;;;3.05;2.30;;;15.60;26.60;;;;;;5035430;28;20025;-79
2022/04/28 10:19:54;;;;;;;3.53;2.15;;;14.70;27.70;;;;;;5035226;28;20108;-78
2022/04/28 10:22:32;;;;;;;8.93;2.78;;;14.70;28.00;;;;;;5035243;28;20026;-80
2022/04/28 10:33:21;;;;;;;8.80;2.80;;;12.70;29.40;;;;;;5015130;28;20049;-80
2022/04/28 10:35:49;;;;;;;5.18;2.40;;;12.20;29.80;;;;;;5032969;28;20021;-77
2022/04/28 10:38:26;;;;;;;5.57;3.15;;;12.00;30.50;;;;;;5034625;28;20103;-79
2022/04/28 10:40:55;;;;;;;3.90;1.88;;;11.80;30.60;;;;;;5023288;28;20151;-78
2022/04/28 10:43:34;;;;;;;3.17;2.53;;;11.60;30.80;;;;;;5014699;28;20038;-78
2022/04/28 10:46:01;;;;;;;4.95;3.00;;;11.40;30.90;;;;;;5025403;28;20024;-78
2022/04/28 10:48:31;;;;;;;5.43;2.90;;;11.30;31.20;;;;;;5034113;28;20345;-76
2022/04/28 10:51:19;;;;;;;5.75;2.88;;;11.30;31.50;;;;;;5018473;28;20197;-78
2022/04/28 10:54:06;;;;;;;7.32;2.90;;;11.30;31.70;;;;;;5046021;28;20041;-78
2022/04/28 10:57:01;;;;;;;7.27;2.70;;;11.30;31.50;;;;;;5019687;28;20025;-77
2022/04/28 10:59:31;;;;;;;5.88;2.60;;;11.50;31.50;;;;;;5014627;28;20264;-78
2022/04/28 11:02:10;;;;;;;5.30;2.30;;;11.70;31.50;;;;;;5014553;28;20071;-79
2022/04/28 11:04:37;;;;;;;6.88;2.63;;;11.50;31.30;;;;;;5032736;28;20053;-80
2022/04/28 11:07:27;;;;;;;3.42;2.58;;;11.60;31.60;;;;;;5029434;28;20025;-81
2022/04/28 11:09:58;;;;;;;5.13;2.40;;;11.60;31.80;;;;;;5032461;28;20071;-79
2022/04/28 11:12:32;;;;;;;4.07;2.55;;;11.60;31.80;;;;;;5034185;28;20021;-79
2022/04/28 11:15:10;;;;;;;6.05;2.50;;;11.30;31.80;;;;;;5033882;28;20429;-80
2022/04/28 11:17:38;;;;;;;8.23;2.90;;;11.30;32.30;;;;;;5033884;28;20056;-81
2022/04/28 11:20:12;;;;;;;4.93;2.58;;;11.30;32.40;;;;;;5034051;28;20483;-79
2022/04/28 11:22:56;;;;;;;4.85;2.78;;;11.30;32.00;;;;;;5032790;28;20048;-79
2022/04/28 11:25:22;;;;;;;3.47;2.60;;;11.10;32.50;;;;;;5031368;28;20025;-78
2022/04/28 11:27:52;;;;;;;4.40;2.67;;;11.00;32.60;;;;;;5014019;28;20026;-79
2022/04/28 11:30:20;;;;;;;3.92;2.47;;;10.80;33.00;;;;;;5021615;28;20029;-78
2022/04/28 11:32:58;;;;;;;5.13;2.92;;;10.50;33.00;;;;;;5032673;28;20025;-78
2022/04/28 11:35:35;;;;;;;3.72;2.47;;;10.40;34.00;;;;;;5033803;28;20395;-80
2022/04/28 11:38:04;;;;;;;8.38;2.97;;;10.40;33.60;;;;;;5033347;28;20411;-78
2022/04/28 11:40:34;;;;;;;3.85;2.58;;;10.30;33.50;;;;;;5038021;28;20046;-88
2022/04/28 11:43:02;;;;;;;3.88;2.50;;;10.20;33.60;;;;;;5035183;28;20032;-80
2022/04/28 11:45:31;;;;;;;6.60;2.85;;;10.30;33.50;;;;;;5014508;28;20022;-80
2022/04/28 11:47:59;;;;;;;5.07;2.47;;;10.50;33.70;;;;;;5026480;28;20669;-81
2022/04/28 11:50:27;;;;;;;5.80;4.05;;;10.70;33.10;;;;;;5035255;28;20045;-83
2022/04/28 11:53:20;;;;;;;;;;;10.80;33.00;;;;;;5033918;28;20109;-81
2022/04/28 11:55:48;;;;;;;4.32;2.60;;;10.80;33.60;;;;;;5030459;28;19909;-79
2022/04/28 11:58:16;;;;;;;6.18;2.58;;;10.70;33.30;;;;;;5062977;28;20037;-77
2022/04/28 12:00:44;;;;;;;4.82;2.70;;;10.80;33.80;;;;;;5032865;28;20060;-80
2022/04/28 12:03:23;;;;;;;4.30;2.83;;;10.90;33.90;;;;;;5032618;28;20021;-82
2022/04/28 12:05:51;;;;;;;5.00;2.40;;;10.90;33.40;;;;;;5033130;28;20018;-79
2022/04/28 12:08:21;;;;;;;5.55;2.67;;;10.90;33.00;;;;;;5032378;28;20706;-80
2022/04/28 12:16:19;;;;;;;5.93;2.70;;;11.10;33.20;;;;;;5033106;28;20095;-79
2022/04/28 12:21:35;;;;;;;5.85;3.45;;;10.90;33.20;;;;;;5013275;28;20367;-77
2022/04/28 12:24:02;;;;;;;4.88;3.75;;;10.90;33.40;;;;;;5016165;28;20126;-79
2022/04/28 12:26:36;;;;;;;4.68;2.63;;;11.00;33.20;;;;;;5032464;28;20034;-80
2022/04/28 12:29:13;;;;;;;5.78;2.35;;;10.90;33.20;;;;;;5031091;28;20029;-77
2022/04/28 12:31:39;;;;;;;7.47;3.03;;;10.80;33.20;;;;;;5032548;28;20048;-78
2022/04/28 12:34:13;;;;;;;5.88;2.80;;;10.60;33.60;;;;;;5050468;28;20286;-80
2022/04/28 12:36:48;;;;;;;3.55;2.28;;;10.60;33.20;;;;;;5032281;28;20027;-80
2022/04/28 12:39:17;;;;;;;5.68;2.75;;;10.60;33.30;;;;;;5025820;28;20020;-79
2022/04/28 12:41:44;;;;;;;11.48;2.60;;;10.60;33.50;;;;;;5030371;28;20046;-79
2022/04/28 12:44:10;;;;;;;3.72;2.78;;;10.50;33.30;;;;;;5032172;28;20029;-78
2022/04/28 12:46:38;;;;;;;5.63;2.28;;;10.40;33.50;;;;;;5032385;28;20021;-78
2022/04/28 12:49:07;;;;;;;3.33;2.47;;;10.40;33.80;;;;;;5032258;28;20064;-77
2022/04/28 12:51:45;;;;;;;4.10;2.72;;;10.40;33.90;;;;;;5031901;28;20120;-76
2022/04/28 12:54:20;;;;;;;4.45;2.42;;;10.50;34.00;;;;;;5031961;28;20033;-78
2022/04/28 12:56:54;;;;;;;5.43;2.83;;;10.70;34.10;;;;;;5031559;28;20021;-77
2022/04/28 12:59:21;;;;;;;5.90;3.13;;;10.80;34.30;;;;;;5012253;28;20026;-78
2022/04/28 13:01:48;;;;;;;11.32;4.22;;;11.00;34.00;;;;;;5012371;28;20056;-77
2022/04/28 13:04:20;;;;;;;7.83;3.30;;;11.00;34.00;;;;;;5027646;28;20045;-79
2022/04/28 13:06:46;;;;;;;6.78;2.92;;;11.00;33.80;;;;;;5012300;28;20018;-79
2022/04/28 13:09:15;;;;;;;4.82;3.20;;;10.70;33.80;;;;;;5012021;28;20510;-77
2022/04/28 13:11:45;;;;;;;4.50;2.75;;;10.70;34.10;;;;;;5024138;28;20091;-78
2022/04/28 13:14:21;;;;;;;5.18;2.90;;;10.60;34.10;;;;;;5031076;28;20042;-77
2022/04/28 13:16:47;;;;;;;6.35;2.58;;;10.40;34.30;;;;;;5031900;28;20021;-77
2022/04/28 13:19:14;;;;;;;5.97;3.47;;;10.40;34.70;;;;;;5031946;28;20032;-78
2022/04/28 13:21:40;;;;;;;;;;;10.40;34.50;;;;;;5031116;28;20025;-78
2022/04/28 13:24:07;;;;;;;3.15;2.63;;;10.50;34.40;;;;;;5031941;28;20286;-76
2022/04/28 13:26:33;;;;;;;4.47;2.60;;;10.40;34.30;;;;;;5030606;28;20030;-77
2022/04/28 13:28:59;;;;;;;4.88;2.55;;;10.50;34.40;;;;;;5031673;28;20267;-78
2022/04/28 13:31:26;;;;;;;4.15;2.53;;;10.50;34.30;;;;;;5026032;28;20022;-77
2022/04/28 13:33:54;;;;;;;8.98;4.15;;;10.50;34.20;;;;;;5029004;28;20041;-75
2022/04/28 13:36:20;;;;;;;5.50;3.40;;;10.50;34.50;;;;;;5031645;28;20025;-76